sensor_id;sensor_type;location;lat;lon;timestamp;P1;durP1;ratioP1;P2;durP2;ratioP2
42912;SDS011;50720;54.324;18.558;2022-11-23T00:02:00;83.72;;;30.13;;
42912;SDS011;50720;54.324;18.558;2022-11-23T00:04:30;80.20;;;29.27;;
42912;SDS011;50720;54.324;18.558;2022-11-23T00:07:00;85.95;;;31.65;;
42912;SDS011;50720;54.324;18.558;2022-11-23T00:09:32;80.43;;;30.83;;
42912;SDS011;50720;54.324;18.558;2022-11-23T00:12:01;80.60;;;28.95;;
42912;SDS011;50720;54.324;18.558;2022-11-23T00:14:31;79.13;;;26.48;;
42912;SDS011;50720;54.324;18.558;2022-11-23T00:17:01;78.65;;;28.98;;
42912;SDS011;50720;54.324;18.558;2022-11-23T00:19:47;72.72;;;27.55;;
42912;SDS011;50720;54.324;18.558;2022-11-23T00:22:17;80.03;;;27.92;;
42912;SDS011;50720;54.324;18.558;2022-11-23T00:24:49;81.80;;;31.83;;
42912;SDS011;50720;54.324;18.558;2022-11-23T00:27:19;74.65;;;27.77;;
42912;SDS011;50720;54.324;18.558;2022-11-23T00:29:48;80.30;;;26.52;;
42912;SDS011;50720;54.324;18.558;2022-11-23T00:32:18;60.80;;;26.63;;
42912;SDS011;50720;54.324;18.558;2022-11-23T00:34:48;74.47;;;26.33;;
42912;SDS011;50720;54.324;18.558;2022-11-23T00:37:18;75.38;;;28.42;;
42912;SDS011;50720;54.324;18.558;2022-11-23T00:39:49;77.70;;;28.05;;
42912;SDS011;50720;54.324;18.558;2022-11-23T00:42:20;85.45;;;30.02;;
42912;SDS011;50720;54.324;18.558;2022-11-23T00:44:49;69.97;;;26.55;;
42912;SDS011;50720;54.324;18.558;2022-11-23T00:47:19;75.15;;;27.95;;
42912;SDS011;50720;54.324;18.558;2022-11-23T00:49:48;73.38;;;25.75;;
42912;SDS011;50720;54.324;18.558;2022-11-23T00:52:19;80.35;;;28.02;;
42912;SDS011;50720;54.324;18.558;2022-11-23T00:54:50;75.78;;;27.20;;
42912;SDS011;50720;54.324;18.558;2022-11-23T00:57:20;73.50;;;28.40;;
42912;SDS011;50720;54.324;18.558;2022-11-23T00:59:49;72.97;;;28.17;;
42912;SDS011;50720;54.324;18.558;2022-11-23T01:02:19;79.93;;;28.80;;
42912;SDS011;50720;54.324;18.558;2022-11-23T01:04:49;70.13;;;26.08;;
42912;SDS011;50720;54.324;18.558;2022-11-23T01:07:19;88.80;;;30.10;;
42912;SDS011;50720;54.324;18.558;2022-11-23T01:09:50;78.90;;;28.92;;
42912;SDS011;50720;54.324;18.558;2022-11-23T01:12:20;82.45;;;30.00;;
42912;SDS011;50720;54.324;18.558;2022-11-23T01:14:51;79.05;;;31.27;;
42912;SDS011;50720;54.324;18.558;2022-11-23T01:17:21;80.28;;;28.35;;
42912;SDS011;50720;54.324;18.558;2022-11-23T01:19:51;73.60;;;28.45;;
42912;SDS011;50720;54.324;18.558;2022-11-23T01:22:21;94.15;;;29.08;;
42912;SDS011;50720;54.324;18.558;2022-11-23T01:24:52;74.22;;;28.60;;
42912;SDS011;50720;54.324;18.558;2022-11-23T01:27:22;71.60;;;29.35;;
42912;SDS011;50720;54.324;18.558;2022-11-23T01:29:51;77.50;;;28.25;;
42912;SDS011;50720;54.324;18.558;2022-11-23T01:32:21;82.55;;;29.38;;
42912;SDS011;50720;54.324;18.558;2022-11-23T01:34:51;79.55;;;28.50;;
42912;SDS011;50720;54.324;18.558;2022-11-23T01:37:21;75.28;;;28.50;;
42912;SDS011;50720;54.324;18.558;2022-11-23T01:39:52;80.22;;;31.83;;
42912;SDS011;50720;54.324;18.558;2022-11-23T01:42:36;80.78;;;31.92;;
42912;SDS011;50720;54.324;18.558;2022-11-23T01:48:08;85.47;;;32.60;;
42912;SDS011;50720;54.324;18.558;2022-11-23T01:50:42;83.38;;;28.05;;
42912;SDS011;50720;54.324;18.558;2022-11-23T01:53:15;85.43;;;30.33;;
42912;SDS011;50720;54.324;18.558;2022-11-23T01:55:46;85.23;;;30.33;;
42912;SDS011;50720;54.324;18.558;2022-11-23T01:58:18;73.70;;;25.83;;
42912;SDS011;50720;54.324;18.558;2022-11-23T02:00:50;79.18;;;31.13;;
42912;SDS011;50720;54.324;18.558;2022-11-23T02:03:21;72.45;;;27.58;;
42912;SDS011;50720;54.324;18.558;2022-11-23T02:05:52;76.82;;;28.58;;
42912;SDS011;50720;54.324;18.558;2022-11-23T02:08:28;77.50;;;29.67;;
42912;SDS011;50720;54.324;18.558;2022-11-23T02:13:29;79.53;;;29.80;;
42912;SDS011;50720;54.324;18.558;2022-11-23T02:15:59;74.90;;;29.25;;
42912;SDS011;50720;54.324;18.558;2022-11-23T02:18:31;84.93;;;32.08;;
42912;SDS011;50720;54.324;18.558;2022-11-23T02:21:02;89.05;;;30.13;;
42912;SDS011;50720;54.324;18.558;2022-11-23T02:23:36;81.28;;;30.60;;
42912;SDS011;50720;54.324;18.558;2022-11-23T02:26:13;78.50;;;29.77;;
42912;SDS011;50720;54.324;18.558;2022-11-23T02:28:47;93.80;;;32.15;;
42912;SDS011;50720;54.324;18.558;2022-11-23T02:31:20;80.97;;;31.27;;
42912;SDS011;50720;54.324;18.558;2022-11-23T02:33:50;87.03;;;32.22;;
42912;SDS011;50720;54.324;18.558;2022-11-23T02:36:24;74.47;;;29.93;;
42912;SDS011;50720;54.324;18.558;2022-11-23T02:39:05;79.22;;;26.95;;
42912;SDS011;50720;54.324;18.558;2022-11-23T02:41:39;78.40;;;28.83;;
42912;SDS011;50720;54.324;18.558;2022-11-23T02:44:24;88.57;;;31.00;;
42912;SDS011;50720;54.324;18.558;2022-11-23T02:47:02;79.25;;;30.90;;
42912;SDS011;50720;54.324;18.558;2022-11-23T02:49:33;79.07;;;28.00;;
42912;SDS011;50720;54.324;18.558;2022-11-23T02:52:03;79.55;;;29.88;;
42912;SDS011;50720;54.324;18.558;2022-11-23T02:54:34;77.50;;;30.23;;
42912;SDS011;50720;54.324;18.558;2022-11-23T02:57:05;79.60;;;29.98;;
42912;SDS011;50720;54.324;18.558;2022-11-23T02:59:36;83.47;;;29.70;;
42912;SDS011;50720;54.324;18.558;2022-11-23T03:02:06;78.05;;;30.05;;
42912;SDS011;50720;54.324;18.558;2022-11-23T03:04:36;75.70;;;30.52;;
42912;SDS011;50720;54.324;18.558;2022-11-23T03:07:05;84.07;;;29.83;;
42912;SDS011;50720;54.324;18.558;2022-11-23T03:09:35;70.43;;;28.87;;
42912;SDS011;50720;54.324;18.558;2022-11-23T03:12:07;66.97;;;26.60;;
42912;SDS011;50720;54.324;18.558;2022-11-23T03:14:36;83.35;;;29.85;;
42912;SDS011;50720;54.324;18.558;2022-11-23T03:17:06;81.13;;;29.23;;
42912;SDS011;50720;54.324;18.558;2022-11-23T03:19:36;76.75;;;30.15;;
42912;SDS011;50720;54.324;18.558;2022-11-23T03:22:05;67.30;;;27.95;;
42912;SDS011;50720;54.324;18.558;2022-11-23T03:24:35;73.70;;;29.95;;
42912;SDS011;50720;54.324;18.558;2022-11-23T03:27:06;73.35;;;29.42;;
42912;SDS011;50720;54.324;18.558;2022-11-23T03:29:36;86.32;;;30.08;;
42912;SDS011;50720;54.324;18.558;2022-11-23T03:32:06;78.80;;;28.48;;
42912;SDS011;50720;54.324;18.558;2022-11-23T03:34:36;81.63;;;29.98;;
42912;SDS011;50720;54.324;18.558;2022-11-23T03:37:05;82.90;;;29.85;;
42912;SDS011;50720;54.324;18.558;2022-11-23T03:39:35;84.27;;;29.77;;
42912;SDS011;50720;54.324;18.558;2022-11-23T03:42:14;83.82;;;28.58;;
42912;SDS011;50720;54.324;18.558;2022-11-23T03:44:44;83.70;;;31.15;;
42912;SDS011;50720;54.324;18.558;2022-11-23T03:47:13;72.05;;;28.27;;
42912;SDS011;50720;54.324;18.558;2022-11-23T03:49:43;81.75;;;28.67;;
42912;SDS011;50720;54.324;18.558;2022-11-23T03:52:13;82.47;;;30.17;;
42912;SDS011;50720;54.324;18.558;2022-11-23T03:54:43;82.53;;;31.25;;
42912;SDS011;50720;54.324;18.558;2022-11-23T03:57:14;85.80;;;30.15;;
42912;SDS011;50720;54.324;18.558;2022-11-23T03:59:45;74.00;;;29.70;;
42912;SDS011;50720;54.324;18.558;2022-11-23T04:02:14;83.18;;;27.65;;
42912;SDS011;50720;54.324;18.558;2022-11-23T04:04:44;74.82;;;28.88;;
42912;SDS011;50720;54.324;18.558;2022-11-23T04:07:13;68.28;;;26.75;;
42912;SDS011;50720;54.324;18.558;2022-11-23T04:09:43;76.90;;;28.83;;
42912;SDS011;50720;54.324;18.558;2022-11-23T04:12:14;76.80;;;30.58;;
42912;SDS011;50720;54.324;18.558;2022-11-23T04:14:44;80.90;;;29.73;;
42912;SDS011;50720;54.324;18.558;2022-11-23T04:17:14;77.20;;;29.70;;
42912;SDS011;50720;54.324;18.558;2022-11-23T04:19:44;73.13;;;29.08;;
42912;SDS011;50720;54.324;18.558;2022-11-23T04:22:13;72.20;;;29.60;;
42912;SDS011;50720;54.324;18.558;2022-11-23T04:24:43;75.90;;;29.67;;
42912;SDS011;50720;54.324;18.558;2022-11-23T04:27:12;76.43;;;30.05;;
42912;SDS011;50720;54.324;18.558;2022-11-23T04:29:44;70.75;;;26.75;;
42912;SDS011;50720;54.324;18.558;2022-11-23T04:32:13;88.20;;;29.20;;
42912;SDS011;50720;54.324;18.558;2022-11-23T04:34:43;71.93;;;27.90;;
42912;SDS011;50720;54.324;18.558;2022-11-23T04:37:13;72.63;;;28.48;;
42912;SDS011;50720;54.324;18.558;2022-11-23T04:39:43;76.30;;;28.45;;
42912;SDS011;50720;54.324;18.558;2022-11-23T04:42:15;89.22;;;33.30;;
42912;SDS011;50720;54.324;18.558;2022-11-23T04:44:44;77.85;;;30.63;;
42912;SDS011;50720;54.324;18.558;2022-11-23T04:47:14;81.55;;;28.60;;
42912;SDS011;50720;54.324;18.558;2022-11-23T04:49:45;85.25;;;29.30;;
42912;SDS011;50720;54.324;18.558;2022-11-23T04:52:14;68.45;;;26.00;;
42912;SDS011;50720;54.324;18.558;2022-11-23T04:54:44;84.47;;;33.00;;
42912;SDS011;50720;54.324;18.558;2022-11-23T04:57:15;74.32;;;27.88;;
42912;SDS011;50720;54.324;18.558;2022-11-23T04:59:44;94.07;;;33.85;;
42912;SDS011;50720;54.324;18.558;2022-11-23T05:02:14;80.93;;;28.52;;
42912;SDS011;50720;54.324;18.558;2022-11-23T05:04:44;81.57;;;29.65;;
42912;SDS011;50720;54.324;18.558;2022-11-23T05:07:13;74.03;;;26.75;;
42912;SDS011;50720;54.324;18.558;2022-11-23T05:09:43;82.32;;;26.27;;
42912;SDS011;50720;54.324;18.558;2022-11-23T05:12:14;73.85;;;26.73;;
42912;SDS011;50720;54.324;18.558;2022-11-23T05:14:44;83.13;;;26.65;;
42912;SDS011;50720;54.324;18.558;2022-11-23T05:17:14;83.10;;;27.63;;
42912;SDS011;50720;54.324;18.558;2022-11-23T05:19:44;84.23;;;28.77;;
42912;SDS011;50720;54.324;18.558;2022-11-23T05:22:13;73.88;;;26.90;;
42912;SDS011;50720;54.324;18.558;2022-11-23T05:24:43;84.20;;;29.48;;
42912;SDS011;50720;54.324;18.558;2022-11-23T05:27:15;76.82;;;28.77;;
42912;SDS011;50720;54.324;18.558;2022-11-23T05:29:44;76.63;;;28.35;;
42912;SDS011;50720;54.324;18.558;2022-11-23T05:32:14;91.63;;;29.63;;
42912;SDS011;50720;54.324;18.558;2022-11-23T05:34:44;81.32;;;30.45;;
42912;SDS011;50720;54.324;18.558;2022-11-23T05:37:13;80.35;;;27.30;;
42912;SDS011;50720;54.324;18.558;2022-11-23T05:39:43;88.13;;;28.60;;
42912;SDS011;50720;54.324;18.558;2022-11-23T05:42:13;91.88;;;29.13;;
42912;SDS011;50720;54.324;18.558;2022-11-23T05:44:44;91.63;;;30.63;;
42912;SDS011;50720;54.324;18.558;2022-11-23T05:47:13;99.22;;;31.83;;
42912;SDS011;50720;54.324;18.558;2022-11-23T05:49:43;85.15;;;33.55;;
42912;SDS011;50720;54.324;18.558;2022-11-23T05:52:12;100.20;;;32.95;;
42912;SDS011;50720;54.324;18.558;2022-11-23T05:54:42;97.53;;;32.20;;
42912;SDS011;50720;54.324;18.558;2022-11-23T05:57:12;98.70;;;33.03;;
42912;SDS011;50720;54.324;18.558;2022-11-23T05:59:45;105.05;;;35.75;;
42912;SDS011;50720;54.324;18.558;2022-11-23T06:02:14;98.65;;;33.42;;
42912;SDS011;50720;54.324;18.558;2022-11-23T06:04:44;96.95;;;33.22;;
42912;SDS011;50720;54.324;18.558;2022-11-23T06:07:14;101.43;;;36.05;;
42912;SDS011;50720;54.324;18.558;2022-11-23T06:09:44;97.85;;;32.10;;
42912;SDS011;50720;54.324;18.558;2022-11-23T06:12:13;101.38;;;36.75;;
42912;SDS011;50720;54.324;18.558;2022-11-23T06:14:44;99.97;;;34.40;;
42912;SDS011;50720;54.324;18.558;2022-11-23T06:17:13;105.95;;;35.00;;
42912;SDS011;50720;54.324;18.558;2022-11-23T06:19:44;111.97;;;36.08;;
42912;SDS011;50720;54.324;18.558;2022-11-23T06:22:13;100.72;;;34.70;;
42912;SDS011;50720;54.324;18.558;2022-11-23T06:24:43;98.10;;;36.60;;
42912;SDS011;50720;54.324;18.558;2022-11-23T06:27:12;100.50;;;35.40;;
42912;SDS011;50720;54.324;18.558;2022-11-23T06:29:46;101.05;;;35.20;;
42912;SDS011;50720;54.324;18.558;2022-11-23T06:34:45;111.85;;;35.08;;
42912;SDS011;50720;54.324;18.558;2022-11-23T06:37:15;107.28;;;37.58;;
42912;SDS011;50720;54.324;18.558;2022-11-23T06:39:45;99.47;;;35.22;;
42912;SDS011;50720;54.324;18.558;2022-11-23T06:42:14;108.45;;;35.97;;
42912;SDS011;50720;54.324;18.558;2022-11-23T06:45:07;106.88;;;36.05;;
42912;SDS011;50720;54.324;18.558;2022-11-23T06:47:37;113.10;;;37.17;;
42912;SDS011;50720;54.324;18.558;2022-11-23T06:50:07;106.47;;;37.15;;
42912;SDS011;50720;54.324;18.558;2022-11-23T06:52:37;118.45;;;42.00;;
42912;SDS011;50720;54.324;18.558;2022-11-23T06:55:07;115.07;;;37.53;;
42912;SDS011;50720;54.324;18.558;2022-11-23T06:57:36;104.63;;;33.80;;
42912;SDS011;50720;54.324;18.558;2022-11-23T07:00:08;122.40;;;39.15;;
42912;SDS011;50720;54.324;18.558;2022-11-23T07:02:38;116.30;;;38.97;;
42912;SDS011;50720;54.324;18.558;2022-11-23T07:05:09;111.20;;;39.40;;
42912;SDS011;50720;54.324;18.558;2022-11-23T07:07:38;120.22;;;40.58;;
42912;SDS011;50720;54.324;18.558;2022-11-23T07:10:08;115.70;;;37.78;;
42912;SDS011;50720;54.324;18.558;2022-11-23T07:12:38;117.25;;;38.88;;
42912;SDS011;50720;54.324;18.558;2022-11-23T07:15:10;111.78;;;38.47;;
42912;SDS011;50720;54.324;18.558;2022-11-23T07:17:41;111.80;;;38.35;;
42912;SDS011;50720;54.324;18.558;2022-11-23T07:20:12;111.28;;;35.67;;
42912;SDS011;50720;54.324;18.558;2022-11-23T07:22:42;109.03;;;35.20;;
42912;SDS011;50720;54.324;18.558;2022-11-23T07:25:12;118.20;;;42.73;;
42912;SDS011;50720;54.324;18.558;2022-11-23T07:27:45;107.35;;;36.83;;
42912;SDS011;50720;54.324;18.558;2022-11-23T07:30:16;100.05;;;35.05;;
42912;SDS011;50720;54.324;18.558;2022-11-23T07:32:47;106.70;;;33.88;;
42912;SDS011;50720;54.324;18.558;2022-11-23T07:35:17;109.35;;;35.80;;
42912;SDS011;50720;54.324;18.558;2022-11-23T07:37:47;124.20;;;39.00;;
42912;SDS011;50720;54.324;18.558;2022-11-23T07:40:17;120.30;;;41.92;;
42912;SDS011;50720;54.324;18.558;2022-11-23T07:42:46;120.28;;;39.28;;
42912;SDS011;50720;54.324;18.558;2022-11-23T07:45:18;120.00;;;37.42;;
42912;SDS011;50720;54.324;18.558;2022-11-23T07:47:55;110.18;;;39.30;;
42912;SDS011;50720;54.324;18.558;2022-11-23T07:50:27;113.55;;;36.55;;
42912;SDS011;50720;54.324;18.558;2022-11-23T07:52:56;105.47;;;32.53;;
42912;SDS011;50720;54.324;18.558;2022-11-23T07:55:27;111.45;;;37.75;;
42912;SDS011;50720;54.324;18.558;2022-11-23T07:57:57;117.28;;;37.17;;
42912;SDS011;50720;54.324;18.558;2022-11-23T08:00:29;113.22;;;36.10;;
42912;SDS011;50720;54.324;18.558;2022-11-23T08:02:58;108.78;;;37.47;;
42912;SDS011;50720;54.324;18.558;2022-11-23T08:05:48;124.85;;;41.13;;
42912;SDS011;50720;54.324;18.558;2022-11-23T08:08:18;105.95;;;37.00;;
42912;SDS011;50720;54.324;18.558;2022-11-23T08:10:48;122.20;;;37.80;;
42912;SDS011;50720;54.324;18.558;2022-11-23T08:13:20;125.53;;;36.13;;
42912;SDS011;50720;54.324;18.558;2022-11-23T08:15:52;111.70;;;34.40;;
42912;SDS011;50720;54.324;18.558;2022-11-23T08:18:22;122.72;;;40.92;;
42912;SDS011;50720;54.324;18.558;2022-11-23T08:20:52;113.68;;;38.45;;
42912;SDS011;50720;54.324;18.558;2022-11-23T08:23:22;110.90;;;37.95;;
42912;SDS011;50720;54.324;18.558;2022-11-23T08:25:53;108.32;;;35.70;;
42912;SDS011;50720;54.324;18.558;2022-11-23T08:28:22;111.55;;;37.15;;
42912;SDS011;50720;54.324;18.558;2022-11-23T08:30:54;112.93;;;35.28;;
42912;SDS011;50720;54.324;18.558;2022-11-23T08:33:24;114.30;;;37.70;;
42912;SDS011;50720;54.324;18.558;2022-11-23T08:35:55;89.13;;;30.80;;
42912;SDS011;50720;54.324;18.558;2022-11-23T08:38:24;102.15;;;35.17;;
42912;SDS011;50720;54.324;18.558;2022-11-23T08:40:56;117.72;;;37.50;;
42912;SDS011;50720;54.324;18.558;2022-11-23T08:43:26;97.85;;;35.00;;
42912;SDS011;50720;54.324;18.558;2022-11-23T08:45:58;94.65;;;32.95;;
42912;SDS011;50720;54.324;18.558;2022-11-23T08:48:35;102.38;;;33.38;;
42912;SDS011;50720;54.324;18.558;2022-11-23T08:51:05;114.63;;;38.92;;
42912;SDS011;50720;54.324;18.558;2022-11-23T08:53:34;117.32;;;34.28;;
42912;SDS011;50720;54.324;18.558;2022-11-23T08:56:05;117.80;;;36.25;;
42912;SDS011;50720;54.324;18.558;2022-11-23T08:58:35;123.30;;;36.75;;
42912;SDS011;50720;54.324;18.558;2022-11-23T09:01:08;114.93;;;35.88;;
42912;SDS011;50720;54.324;18.558;2022-11-23T09:03:38;107.32;;;34.35;;
42912;SDS011;50720;54.324;18.558;2022-11-23T09:06:08;116.18;;;34.65;;
42912;SDS011;50720;54.324;18.558;2022-11-23T09:08:38;113.45;;;38.05;;
42912;SDS011;50720;54.324;18.558;2022-11-23T09:11:09;117.78;;;40.40;;
42912;SDS011;50720;54.324;18.558;2022-11-23T09:13:40;104.10;;;36.40;;
42912;SDS011;50720;54.324;18.558;2022-11-23T09:16:11;111.53;;;34.95;;
42912;SDS011;50720;54.324;18.558;2022-11-23T09:18:55;114.75;;;35.80;;
42912;SDS011;50720;54.324;18.558;2022-11-23T09:21:25;110.65;;;33.75;;
42912;SDS011;50720;54.324;18.558;2022-11-23T09:23:59;121.88;;;37.35;;
42912;SDS011;50720;54.324;18.558;2022-11-23T09:26:29;104.38;;;37.40;;
42912;SDS011;50720;54.324;18.558;2022-11-23T09:28:59;117.13;;;34.38;;
42912;SDS011;50720;54.324;18.558;2022-11-23T09:31:31;106.67;;;35.03;;
42912;SDS011;50720;54.324;18.558;2022-11-23T09:36:30;109.05;;;36.50;;
42912;SDS011;50720;54.324;18.558;2022-11-23T09:39:00;115.10;;;35.58;;
42912;SDS011;50720;54.324;18.558;2022-11-23T09:44:51;94.30;;;33.35;;
42912;SDS011;50720;54.324;18.558;2022-11-23T09:47:44;108.93;;;38.63;;
42912;SDS011;50720;54.324;18.558;2022-11-23T09:50:23;98.50;;;31.75;;
42912;SDS011;50720;54.324;18.558;2022-11-23T09:52:57;97.53;;;31.35;;
42912;SDS011;50720;54.324;18.558;2022-11-23T09:55:36;101.80;;;33.10;;
42912;SDS011;50720;54.324;18.558;2022-11-23T09:58:11;102.38;;;31.35;;
42912;SDS011;50720;54.324;18.558;2022-11-23T10:00:44;81.20;;;29.38;;
42912;SDS011;50720;54.324;18.558;2022-11-23T10:03:18;84.43;;;30.35;;
42912;SDS011;50720;54.324;18.558;2022-11-23T10:05:52;91.80;;;30.77;;
42912;SDS011;50720;54.324;18.558;2022-11-23T10:08:33;95.00;;;30.50;;
42912;SDS011;50720;54.324;18.558;2022-11-23T10:11:13;88.35;;;30.27;;
42912;SDS011;50720;54.324;18.558;2022-11-23T10:14:01;93.97;;;32.03;;
42912;SDS011;50720;54.324;18.558;2022-11-23T10:16:43;102.13;;;33.10;;
42912;SDS011;50720;54.324;18.558;2022-11-23T10:19:22;102.47;;;33.10;;
42912;SDS011;50720;54.324;18.558;2022-11-23T10:22:02;101.60;;;34.25;;
42912;SDS011;50720;54.324;18.558;2022-11-23T10:24:37;93.97;;;34.58;;
42912;SDS011;50720;54.324;18.558;2022-11-23T10:27:12;99.75;;;36.67;;
42912;SDS011;50720;54.324;18.558;2022-11-23T10:29:45;95.55;;;33.03;;
42912;SDS011;50720;54.324;18.558;2022-11-23T10:32:17;108.00;;;36.00;;
42912;SDS011;50720;54.324;18.558;2022-11-23T10:34:57;99.28;;;32.47;;
42912;SDS011;50720;54.324;18.558;2022-11-23T10:37:31;92.93;;;30.10;;
42912;SDS011;50720;54.324;18.558;2022-11-23T10:40:02;94.10;;;31.02;;
42912;SDS011;50720;54.324;18.558;2022-11-23T10:42:32;99.40;;;31.48;;
42912;SDS011;50720;54.324;18.558;2022-11-23T10:45:08;83.22;;;30.15;;
42912;SDS011;50720;54.324;18.558;2022-11-23T10:47:48;85.32;;;29.10;;
42912;SDS011;50720;54.324;18.558;2022-11-23T10:50:25;87.20;;;32.15;;
42912;SDS011;50720;54.324;18.558;2022-11-23T10:52:58;86.80;;;30.15;;
42912;SDS011;50720;54.324;18.558;2022-11-23T10:55:29;81.00;;;28.73;;
42912;SDS011;50720;54.324;18.558;2022-11-23T10:58:00;86.18;;;30.55;;
42912;SDS011;50720;54.324;18.558;2022-11-23T11:00:29;86.68;;;33.20;;
42912;SDS011;50720;54.324;18.558;2022-11-23T11:02:59;84.93;;;29.88;;
42912;SDS011;50720;54.324;18.558;2022-11-23T11:05:32;90.35;;;32.33;;
42912;SDS011;50720;54.324;18.558;2022-11-23T11:08:23;92.38;;;34.90;;
42912;SDS011;50720;54.324;18.558;2022-11-23T11:10:57;100.18;;;30.52;;
42912;SDS011;50720;54.324;18.558;2022-11-23T11:13:29;80.60;;;29.02;;
42912;SDS011;50720;54.324;18.558;2022-11-23T11:16:01;87.07;;;30.73;;
42912;SDS011;50720;54.324;18.558;2022-11-23T11:18:33;82.90;;;31.13;;
42912;SDS011;50720;54.324;18.558;2022-11-23T11:21:06;94.78;;;30.27;;
42912;SDS011;50720;54.324;18.558;2022-11-23T11:23:49;83.30;;;31.75;;
42912;SDS011;50720;54.324;18.558;2022-11-23T11:26:22;83.72;;;28.80;;
42912;SDS011;50720;54.324;18.558;2022-11-23T11:28:53;89.88;;;32.80;;
42912;SDS011;50720;54.324;18.558;2022-11-23T11:31:37;83.78;;;29.63;;
42912;SDS011;50720;54.324;18.558;2022-11-23T11:34:19;91.05;;;30.48;;
42912;SDS011;50720;54.324;18.558;2022-11-23T11:36:55;90.30;;;30.40;;
42912;SDS011;50720;54.324;18.558;2022-11-23T11:39:31;86.60;;;30.60;;
42912;SDS011;50720;54.324;18.558;2022-11-23T11:42:06;84.63;;;28.90;;
42912;SDS011;50720;54.324;18.558;2022-11-23T11:44:43;89.18;;;31.25;;
42912;SDS011;50720;54.324;18.558;2022-11-23T11:47:20;83.30;;;29.23;;
42912;SDS011;50720;54.324;18.558;2022-11-23T11:49:55;80.95;;;30.25;;
42912;SDS011;50720;54.324;18.558;2022-11-23T11:52:31;85.13;;;29.17;;
42912;SDS011;50720;54.324;18.558;2022-11-23T11:55:04;88.43;;;31.65;;
42912;SDS011;50720;54.324;18.558;2022-11-23T11:57:41;85.60;;;29.80;;
42912;SDS011;50720;54.324;18.558;2022-11-23T12:00:16;86.82;;;29.83;;
42912;SDS011;50720;54.324;18.558;2022-11-23T12:02:55;81.95;;;28.67;;
42912;SDS011;50720;54.324;18.558;2022-11-23T12:05:35;83.10;;;30.92;;
42912;SDS011;50720;54.324;18.558;2022-11-23T12:08:14;90.63;;;31.38;;
42912;SDS011;50720;54.324;18.558;2022-11-23T12:10:48;88.07;;;32.28;;
42912;SDS011;50720;54.324;18.558;2022-11-23T12:13:21;80.32;;;27.73;;
42912;SDS011;50720;54.324;18.558;2022-11-23T12:15:53;83.55;;;31.45;;
42912;SDS011;50720;54.324;18.558;2022-11-23T12:18:42;91.68;;;32.75;;
42912;SDS011;50720;54.324;18.558;2022-11-23T12:21:25;82.70;;;28.33;;
42912;SDS011;50720;54.324;18.558;2022-11-23T12:24:25;92.75;;;33.15;;
42912;SDS011;50720;54.324;18.558;2022-11-23T12:27:09;85.43;;;29.27;;
42912;SDS011;50720;54.324;18.558;2022-11-23T12:30:02;84.95;;;29.83;;
42912;SDS011;50720;54.324;18.558;2022-11-23T12:32:56;91.55;;;30.70;;
42912;SDS011;50720;54.324;18.558;2022-11-23T12:35:45;76.93;;;31.75;;
42912;SDS011;50720;54.324;18.558;2022-11-23T12:38:26;85.70;;;30.25;;
42912;SDS011;50720;54.324;18.558;2022-11-23T12:44:06;89.88;;;32.10;;
42912;SDS011;50720;54.324;18.558;2022-11-23T12:47:06;92.55;;;31.60;;
42912;SDS011;50720;54.324;18.558;2022-11-23T12:49:44;79.18;;;28.83;;
42912;SDS011;50720;54.324;18.558;2022-11-23T12:52:24;74.10;;;26.15;;
42912;SDS011;50720;54.324;18.558;2022-11-23T12:55:06;80.60;;;28.80;;
42912;SDS011;50720;54.324;18.558;2022-11-23T12:57:50;74.78;;;28.90;;
42912;SDS011;50720;54.324;18.558;2022-11-23T13:00:24;76.22;;;29.92;;
42912;SDS011;50720;54.324;18.558;2022-11-23T13:03:14;69.50;;;28.92;;
42912;SDS011;50720;54.324;18.558;2022-11-23T13:06:13;78.55;;;27.40;;
42912;SDS011;50720;54.324;18.558;2022-11-23T13:09:01;74.38;;;27.73;;
42912;SDS011;50720;54.324;18.558;2022-11-23T13:15:09;82.82;;;29.88;;
42912;SDS011;50720;54.324;18.558;2022-11-23T13:17:51;80.10;;;29.70;;
42912;SDS011;50720;54.324;18.558;2022-11-23T13:20:43;79.57;;;26.55;;
42912;SDS011;50720;54.324;18.558;2022-11-23T13:23:25;76.20;;;27.90;;
42912;SDS011;50720;54.324;18.558;2022-11-23T13:28:44;74.85;;;27.35;;
42912;SDS011;50720;54.324;18.558;2022-11-23T13:31:21;68.85;;;28.05;;
42912;SDS011;50720;54.324;18.558;2022-11-23T13:33:53;73.50;;;29.13;;
42912;SDS011;50720;54.324;18.558;2022-11-23T13:36:33;80.47;;;29.25;;
42912;SDS011;50720;54.324;18.558;2022-11-23T13:42:31;73.40;;;24.42;;
42912;SDS011;50720;54.324;18.558;2022-11-23T13:47:51;68.28;;;27.58;;
42912;SDS011;50720;54.324;18.558;2022-11-23T13:50:32;69.30;;;24.70;;
42912;SDS011;50720;54.324;18.558;2022-11-23T13:53:02;64.88;;;25.50;;
42912;SDS011;50720;54.324;18.558;2022-11-23T13:55:46;56.80;;;23.30;;
42912;SDS011;50720;54.324;18.558;2022-11-23T13:58:33;58.63;;;22.27;;
42912;SDS011;50720;54.324;18.558;2022-11-23T14:01:06;61.85;;;25.08;;
42912;SDS011;50720;54.324;18.558;2022-11-23T14:03:54;68.88;;;25.73;;
42912;SDS011;50720;54.324;18.558;2022-11-23T14:06:26;65.60;;;24.10;;
42912;SDS011;50720;54.324;18.558;2022-11-23T14:09:03;68.47;;;25.40;;
42912;SDS011;50720;54.324;18.558;2022-11-23T14:11:41;73.90;;;25.92;;
42912;SDS011;50720;54.324;18.558;2022-11-23T14:14:22;66.22;;;24.17;;
42912;SDS011;50720;54.324;18.558;2022-11-23T14:17:01;69.90;;;25.45;;
42912;SDS011;50720;54.324;18.558;2022-11-23T14:20:10;64.43;;;27.70;;
42912;SDS011;50720;54.324;18.558;2022-11-23T14:22:56;75.18;;;25.55;;
42912;SDS011;50720;54.324;18.558;2022-11-23T14:25:36;67.03;;;26.83;;
42912;SDS011;50720;54.324;18.558;2022-11-23T14:28:19;74.82;;;28.65;;
42912;SDS011;50720;54.324;18.558;2022-11-23T14:31:01;67.40;;;23.55;;
42912;SDS011;50720;54.324;18.558;2022-11-23T14:33:43;63.78;;;24.23;;
42912;SDS011;50720;54.324;18.558;2022-11-23T14:36:25;70.90;;;24.85;;
42912;SDS011;50720;54.324;18.558;2022-11-23T14:42:21;63.05;;;23.15;;
42912;SDS011;50720;54.324;18.558;2022-11-23T14:44:53;65.60;;;21.75;;
42912;SDS011;50720;54.324;18.558;2022-11-23T14:47:26;63.40;;;24.75;;
42912;SDS011;50720;54.324;18.558;2022-11-23T14:52:28;69.53;;;25.55;;
42912;SDS011;50720;54.324;18.558;2022-11-23T14:55:00;64.00;;;23.60;;
42912;SDS011;50720;54.324;18.558;2022-11-23T14:57:35;73.75;;;27.63;;
42912;SDS011;50720;54.324;18.558;2022-11-23T15:00:19;72.35;;;27.27;;
42912;SDS011;50720;54.324;18.558;2022-11-23T15:02:53;70.88;;;25.80;;
42912;SDS011;50720;54.324;18.558;2022-11-23T15:05:26;67.32;;;26.05;;
42912;SDS011;50720;54.324;18.558;2022-11-23T15:08:01;72.88;;;27.05;;
42912;SDS011;50720;54.324;18.558;2022-11-23T15:10:38;69.05;;;26.65;;
42912;SDS011;50720;54.324;18.558;2022-11-23T15:13:20;81.50;;;27.70;;
42912;SDS011;50720;54.324;18.558;2022-11-23T15:15:51;71.55;;;27.27;;
42912;SDS011;50720;54.324;18.558;2022-11-23T15:18:26;73.07;;;28.75;;